sensor_id;sensor_type;location;lat;lon;timestamp;temperature;humidity
52849;DHT22;38714;53.180;5.812;2023-08-30T00:00:09;14.90;99.90
52849;DHT22;38714;53.180;5.812;2023-08-30T00:02:35;14.90;99.90
52849;DHT22;38714;53.180;5.812;2023-08-30T00:05:03;14.90;99.90
52849;DHT22;38714;53.180;5.812;2023-08-30T00:07:29;14.90;99.90
52849;DHT22;38714;53.180;5.812;2023-08-30T00:09:56;14.80;99.90
52849;DHT22;38714;53.180;5.812;2023-08-30T00:12:21;14.80;99.90
52849;DHT22;38714;53.180;5.812;2023-08-30T00:14:48;14.80;99.90
52849;DHT22;38714;53.180;5.812;2023-08-30T00:17:13;14.80;99.90
52849;DHT22;38714;53.180;5.812;2023-08-30T00:19:40;14.70;99.90
52849;DHT22;38714;53.180;5.812;2023-08-30T00:22:05;14.70;99.90
52849;DHT22;38714;53.180;5.812;2023-08-30T00:24:35;14.60;99.90
52849;DHT22;38714;53.180;5.812;2023-08-30T00:27:01;14.60;99.90
52849;DHT22;38714;53.180;5.812;2023-08-30T00:29:30;14.50;99.90
52849;DHT22;38714;53.180;5.812;2023-08-30T00:31:56;14.50;99.90
52849;DHT22;38714;53.180;5.812;2023-08-30T00:34:21;14.40;99.90
52849;DHT22;38714;53.180;5.812;2023-08-30T00:36:47;14.40;99.90
52849;DHT22;38714;53.180;5.812;2023-08-30T00:39:13;14.40;99.90
52849;DHT22;38714;53.180;5.812;2023-08-30T00:41:39;14.30;99.90
52849;DHT22;38714;53.180;5.812;2023-08-30T00:44:04;14.30;99.90
52849;DHT22;38714;53.180;5.812;2023-08-30T00:46:31;14.30;99.90
52849;DHT22;38714;53.180;5.812;2023-08-30T00:48:58;14.20;99.90
52849;DHT22;38714;53.180;5.812;2023-08-30T00:51:24;14.20;99.90
52849;DHT22;38714;53.180;5.812;2023-08-30T00:53:50;14.20;99.90
52849;DHT22;38714;53.180;5.812;2023-08-30T00:56:17;14.20;99.90
52849;DHT22;38714;53.180;5.812;2023-08-30T00:58:44;14.20;99.90
52849;DHT22;38714;53.180;5.812;2023-08-30T01:01:09;14.10;99.90
52849;DHT22;38714;53.180;5.812;2023-08-30T01:03:35;14.10;99.90
52849;DHT22;38714;53.180;5.812;2023-08-30T01:06:03;14.00;99.90
52849;DHT22;38714;53.180;5.812;2023-08-30T01:08:28;14.00;99.90
52849;DHT22;38714;53.180;5.812;2023-08-30T01:11:10;14.00;99.90
52849;DHT22;38714;53.180;5.812;2023-08-30T01:13:50;13.90;99.90
52849;DHT22;38714;53.180;5.812;2023-08-30T01:16:17;13.90;99.90
52849;DHT22;38714;53.180;5.812;2023-08-30T01:18:46;13.80;99.90
52849;DHT22;38714;53.180;5.812;2023-08-30T01:21:17;13.80;99.90
52849;DHT22;38714;53.180;5.812;2023-08-30T01:23:51;13.90;99.90
52849;DHT22;38714;53.180;5.812;2023-08-30T01:26:41;13.80;99.90
52849;DHT22;38714;53.180;5.812;2023-08-30T01:29:11;13.80;99.90
52849;DHT22;38714;53.180;5.812;2023-08-30T01:31:39;13.80;99.90
52849;DHT22;38714;53.180;5.812;2023-08-30T01:34:06;13.70;99.90
52849;DHT22;38714;53.180;5.812;2023-08-30T01:36:31;13.80;99.90
52849;DHT22;38714;53.180;5.812;2023-08-30T01:38:58;13.70;99.90
52849;DHT22;38714;53.180;5.812;2023-08-30T01:41:26;13.70;99.90
52849;DHT22;38714;53.180;5.812;2023-08-30T01:43:52;13.70;99.90
52849;DHT22;38714;53.180;5.812;2023-08-30T01:46:19;13.70;99.90
52849;DHT22;38714;53.180;5.812;2023-08-30T01:48:47;13.70;99.90
52849;DHT22;38714;53.180;5.812;2023-08-30T01:51:15;13.60;99.90
52849;DHT22;38714;53.180;5.812;2023-08-30T01:53:42;13.60;99.90
52849;DHT22;38714;53.180;5.812;2023-08-30T01:56:09;13.50;99.90
52849;DHT22;38714;53.180;5.812;2023-08-30T01:58:34;13.50;99.90
52849;DHT22;38714;53.180;5.812;2023-08-30T02:01:00;13.50;99.90
52849;DHT22;38714;53.180;5.812;2023-08-30T02:03:26;13.50;99.90
52849;DHT22;38714;53.180;5.812;2023-08-30T02:09:57;13.40;99.90
52849;DHT22;38714;53.180;5.812;2023-08-30T02:11:52;13.50;99.90
52849;DHT22;38714;53.180;5.812;2023-08-30T02:14:20;13.40;99.90
52849;DHT22;38714;53.180;5.812;2023-08-30T02:16:46;13.40;99.90
52849;DHT22;38714;53.180;5.812;2023-08-30T02:19:13;13.40;99.90
52849;DHT22;38714;53.180;5.812;2023-08-30T02:21:47;13.40;99.90
52849;DHT22;38714;53.180;5.812;2023-08-30T02:24:14;13.40;99.90
52849;DHT22;38714;53.180;5.812;2023-08-30T02:26:40;13.40;99.90
52849;DHT22;38714;53.180;5.812;2023-08-30T02:29:05;13.40;99.90
52849;DHT22;38714;53.180;5.812;2023-08-30T02:31:31;13.30;99.90
52849;DHT22;38714;53.180;5.812;2023-08-30T02:33:57;13.30;99.90
52849;DHT22;38714;53.180;5.812;2023-08-30T02:36:22;13.30;99.90
52849;DHT22;38714;53.180;5.812;2023-08-30T02:38:48;13.30;99.90
52849;DHT22;38714;53.180;5.812;2023-08-30T02:41:14;13.40;99.90
52849;DHT22;38714;53.180;5.812;2023-08-30T02:43:39;13.40;99.90
52849;DHT22;38714;53.180;5.812;2023-08-30T02:46:05;13.40;99.90
52849;DHT22;38714;53.180;5.812;2023-08-30T02:48:31;13.40;99.90
52849;DHT22;38714;53.180;5.812;2023-08-30T02:50:57;13.40;99.90
52849;DHT22;38714;53.180;5.812;2023-08-30T02:53:23;13.50;99.90
52849;DHT22;38714;53.180;5.812;2023-08-30T02:55:49;13.40;99.90
52849;DHT22;38714;53.180;5.812;2023-08-30T02:58:14;13.40;99.90
52849;DHT22;38714;53.180;5.812;2023-08-30T03:00:40;13.50;99.90
52849;DHT22;38714;53.180;5.812;2023-08-30T03:03:06;13.50;99.90
52849;DHT22;38714;53.180;5.812;2023-08-30T03:05:31;13.50;99.90
52849;DHT22;38714;53.180;5.812;2023-08-30T03:07:57;13.50;99.90
52849;DHT22;38714;53.180;5.812;2023-08-30T03:10:23;13.50;99.90
52849;DHT22;38714;53.180;5.812;2023-08-30T03:12:48;13.60;99.90
52849;DHT22;38714;53.180;5.812;2023-08-30T03:15:14;13.70;99.90
52849;DHT22;38714;53.180;5.812;2023-08-30T03:17:39;13.70;99.90
52849;DHT22;38714;53.180;5.812;2023-08-30T03:20:06;13.70;99.90
52849;DHT22;38714;53.180;5.812;2023-08-30T03:22:31;13.70;99.90
52849;DHT22;38714;53.180;5.812;2023-08-30T03:24:57;13.70;99.90
52849;DHT22;38714;53.180;5.812;2023-08-30T03:27:24;13.80;99.90
52849;DHT22;38714;53.180;5.812;2023-08-30T03:29:49;13.80;99.90
52849;DHT22;38714;53.180;5.812;2023-08-30T03:32:17;13.80;99.90
52849;DHT22;38714;53.180;5.812;2023-08-30T03:34:46;13.80;99.90
52849;DHT22;38714;53.180;5.812;2023-08-30T03:37:16;13.80;99.90
52849;DHT22;38714;53.180;5.812;2023-08-30T03:39:41;13.90;99.90
52849;DHT22;38714;53.180;5.812;2023-08-30T03:42:07;13.80;99.90
52849;DHT22;38714;53.180;5.812;2023-08-30T03:44:33;13.90;99.90
52849;DHT22;38714;53.180;5.812;2023-08-30T03:46:59;13.90;99.90
52849;DHT22;38714;53.180;5.812;2023-08-30T03:49:24;13.90;99.90
52849;DHT22;38714;53.180;5.812;2023-08-30T03:51:50;13.90;99.90
52849;DHT22;38714;53.180;5.812;2023-08-30T03:54:15;13.90;99.90
52849;DHT22;38714;53.180;5.812;2023-08-30T03:56:44;13.90;99.90
52849;DHT22;38714;53.180;5.812;2023-08-30T03:59:11;14.00;99.90
52849;DHT22;38714;53.180;5.812;2023-08-30T04:01:36;13.90;99.90
52849;DHT22;38714;53.180;5.812;2023-08-30T04:04:02;14.00;99.90
52849;DHT22;38714;53.180;5.812;2023-08-30T04:06:28;14.00;99.90
52849;DHT22;38714;53.180;5.812;2023-08-30T04:08:54;14.00;99.90
52849;DHT22;38714;53.180;5.812;2023-08-30T04:11:20;14.00;99.90
52849;DHT22;38714;53.180;5.812;2023-08-30T04:13:45;14.00;99.90
52849;DHT22;38714;53.180;5.812;2023-08-30T04:16:11;14.00;99.90
52849;DHT22;38714;53.180;5.812;2023-08-30T04:18:36;14.00;99.90
52849;DHT22;38714;53.180;5.812;2023-08-30T04:21:02;14.00;99.90
52849;DHT22;38714;53.180;5.812;2023-08-30T04:23:29;14.00;99.90
52849;DHT22;38714;53.180;5.812;2023-08-30T04:25:55;14.00;99.90
52849;DHT22;38714;53.180;5.812;2023-08-30T04:28:20;14.00;99.90
52849;DHT22;38714;53.180;5.812;2023-08-30T04:30:46;14.00;99.90
52849;DHT22;38714;53.180;5.812;2023-08-30T04:33:12;14.00;99.90
52849;DHT22;38714;53.180;5.812;2023-08-30T04:35:38;13.90;99.90
52849;DHT22;38714;53.180;5.812;2023-08-30T04:38:04;14.00;99.90
52849;DHT22;38714;53.180;5.812;2023-08-30T04:40:31;14.00;99.90
52849;DHT22;38714;53.180;5.812;2023-08-30T04:42:58;14.00;99.90
52849;DHT22;38714;53.180;5.812;2023-08-30T04:45:24;14.00;99.90
52849;DHT22;38714;53.180;5.812;2023-08-30T04:47:50;14.00;99.90
52849;DHT22;38714;53.180;5.812;2023-08-30T04:50:15;14.00;99.90
52849;DHT22;38714;53.180;5.812;2023-08-30T04:52:42;13.90;99.90
52849;DHT22;38714;53.180;5.812;2023-08-30T04:55:08;13.90;99.90
52849;DHT22;38714;53.180;5.812;2023-08-30T04:57:34;14.00;99.90
52849;DHT22;38714;53.180;5.812;2023-08-30T04:59:59;14.00;99.90
52849;DHT22;38714;53.180;5.812;2023-08-30T05:02:29;14.00;99.90
52849;DHT22;38714;53.180;5.812;2023-08-30T05:04:55;14.00;99.90
52849;DHT22;38714;53.180;5.812;2023-08-30T05:07:20;13.90;99.90
52849;DHT22;38714;53.180;5.812;2023-08-30T05:09:46;13.90;99.90
52849;DHT22;38714;53.180;5.812;2023-08-30T05:12:12;14.00;99.90
52849;DHT22;38714;53.180;5.812;2023-08-30T05:14:37;13.90;99.90
52849;DHT22;38714;53.180;5.812;2023-08-30T05:17:03;14.00;99.90
52849;DHT22;38714;53.180;5.812;2023-08-30T05:19:29;14.00;99.90
52849;DHT22;38714;53.180;5.812;2023-08-30T05:21:55;14.00;99.90
52849;DHT22;38714;53.180;5.812;2023-08-30T05:24:21;14.00;99.90
52849;DHT22;38714;53.180;5.812;2023-08-30T05:26:47;13.90;99.90
52849;DHT22;38714;53.180;5.812;2023-08-30T05:29:14;13.90;99.90
52849;DHT22;38714;53.180;5.812;2023-08-30T05:31:40;13.90;99.90
52849;DHT22;38714;53.180;5.812;2023-08-30T05:34:06;13.90;99.90
52849;DHT22;38714;53.180;5.812;2023-08-30T05:36:32;13.90;99.90
52849;DHT22;38714;53.180;5.812;2023-08-30T05:38:58;13.90;99.90
52849;DHT22;38714;53.180;5.812;2023-08-30T05:41:23;13.90;99.90
52849;DHT22;38714;53.180;5.812;2023-08-30T05:43:50;13.90;99.90
52849;DHT22;38714;53.180;5.812;2023-08-30T05:46:16;14.00;99.90
52849;DHT22;38714;53.180;5.812;2023-08-30T05:48:42;13.90;99.90
52849;DHT22;38714;53.180;5.812;2023-08-30T05:51:07;14.00;99.90
52849;DHT22;38714;53.180;5.812;2023-08-30T05:53:33;14.00;99.90
52849;DHT22;38714;53.180;5.812;2023-08-30T05:55:59;13.90;99.90
52849;DHT22;38714;53.180;5.812;2023-08-30T05:58:24;13.90;99.90
52849;DHT22;38714;53.180;5.812;2023-08-30T06:00:50;13.90;99.90
52849;DHT22;38714;53.180;5.812;2023-08-30T06:03:15;13.90;99.90
52849;DHT22;38714;53.180;5.812;2023-08-30T06:05:44;13.90;99.90
52849;DHT22;38714;53.180;5.812;2023-08-30T06:08:09;13.90;99.90
52849;DHT22;38714;53.180;5.812;2023-08-30T06:10:36;14.00;99.90
52849;DHT22;38714;53.180;5.812;2023-08-30T06:13:01;13.90;99.90
52849;DHT22;38714;53.180;5.812;2023-08-30T06:15:28;13.90;99.90
52849;DHT22;38714;53.180;5.812;2023-08-30T06:17:54;13.90;99.90
52849;DHT22;38714;53.180;5.812;2023-08-30T06:20:19;14.00;99.90
52849;DHT22;38714;53.180;5.812;2023-08-30T06:22:45;13.90;99.90
52849;DHT22;38714;53.180;5.812;2023-08-30T06:25:10;14.00;99.90
52849;DHT22;38714;53.180;5.812;2023-08-30T06:27:42;14.00;99.90
52849;DHT22;38714;53.180;5.812;2023-08-30T06:30:11;14.00;99.90
52849;DHT22;38714;53.180;5.812;2023-08-30T06:32:37;14.00;99.90
52849;DHT22;38714;53.180;5.812;2023-08-30T06:35:02;14.10;99.90
52849;DHT22;38714;53.180;5.812;2023-08-30T06:37:29;14.10;99.90
52849;DHT22;38714;53.180;5.812;2023-08-30T06:39:55;14.20;99.90
52849;DHT22;38714;53.180;5.812;2023-08-30T06:42:20;14.20;99.90
52849;DHT22;38714;53.180;5.812;2023-08-30T06:44:46;14.30;99.90
52849;DHT22;38714;53.180;5.812;2023-08-30T06:47:11;14.40;99.90
52849;DHT22;38714;53.180;5.812;2023-08-30T06:49:37;14.50;99.90
52849;DHT22;38714;53.180;5.812;2023-08-30T06:52:03;14.60;99.90
52849;DHT22;38714;53.180;5.812;2023-08-30T06:54:33;14.70;99.90
52849;DHT22;38714;53.180;5.812;2023-08-30T06:57:00;14.70;99.90
52849;DHT22;38714;53.180;5.812;2023-08-30T06:59:27;14.80;99.90
52849;DHT22;38714;53.180;5.812;2023-08-30T07:01:52;14.90;99.90
52849;DHT22;38714;53.180;5.812;2023-08-30T07:04:18;15.00;99.90
52849;DHT22;38714;53.180;5.812;2023-08-30T07:06:44;15.10;99.90
52849;DHT22;38714;53.180;5.812;2023-08-30T07:09:10;15.20;99.90
52849;DHT22;38714;53.180;5.812;2023-08-30T07:11:37;15.20;99.90
52849;DHT22;38714;53.180;5.812;2023-08-30T07:14:03;15.20;99.90
52849;DHT22;38714;53.180;5.812;2023-08-30T07:16:29;15.20;99.90
52849;DHT22;38714;53.180;5.812;2023-08-30T07:18:57;15.20;99.90
52849;DHT22;38714;53.180;5.812;2023-08-30T07:21:23;15.10;99.90
52849;DHT22;38714;53.180;5.812;2023-08-30T07:23:48;15.20;99.90
52849;DHT22;38714;53.180;5.812;2023-08-30T07:26:14;15.10;99.90
52849;DHT22;38714;53.180;5.812;2023-08-30T07:28:39;15.10;99.90
52849;DHT22;38714;53.180;5.812;2023-08-30T07:31:05;15.20;99.90
52849;DHT22;38714;53.180;5.812;2023-08-30T07:33:31;15.20;99.90
52849;DHT22;38714;53.180;5.812;2023-08-30T07:35:57;15.20;99.90
52849;DHT22;38714;53.180;5.812;2023-08-30T07:38:22;15.20;99.90
52849;DHT22;38714;53.180;5.812;2023-08-30T07:40:48;15.20;99.90
52849;DHT22;38714;53.180;5.812;2023-08-30T07:43:14;15.20;99.90
52849;DHT22;38714;53.180;5.812;2023-08-30T07:45:39;15.30;99.90
52849;DHT22;38714;53.180;5.812;2023-08-30T07:48:05;15.30;99.90
52849;DHT22;38714;53.180;5.812;2023-08-30T07:50:30;15.30;99.90
52849;DHT22;38714;53.180;5.812;2023-08-30T07:52:56;15.40;99.90
52849;DHT22;38714;53.180;5.812;2023-08-30T07:55:22;15.50;99.90
52849;DHT22;38714;53.180;5.812;2023-08-30T07:57:48;15.50;99.90
52849;DHT22;38714;53.180;5.812;2023-08-30T08:00:13;15.50;99.90
52849;DHT22;38714;53.180;5.812;2023-08-30T08:02:40;15.50;99.90
52849;DHT22;38714;53.180;5.812;2023-08-30T08:05:06;15.60;99.90
52849;DHT22;38714;53.180;5.812;2023-08-30T08:07:32;15.60;99.90
52849;DHT22;38714;53.180;5.812;2023-08-30T08:09:58;15.60;99.90
52849;DHT22;38714;53.180;5.812;2023-08-30T08:12:23;15.70;99.90
52849;DHT22;38714;53.180;5.812;2023-08-30T08:14:49;15.70;99.90
52849;DHT22;38714;53.180;5.812;2023-08-30T08:17:15;15.80;99.90
52849;DHT22;38714;53.180;5.812;2023-08-30T08:19:40;15.80;99.90
52849;DHT22;38714;53.180;5.812;2023-08-30T08:22:08;15.90;99.90
52849;DHT22;38714;53.180;5.812;2023-08-30T08:24:33;15.90;99.90
52849;DHT22;38714;53.180;5.812;2023-08-30T08:26:59;15.90;99.90
52849;DHT22;38714;53.180;5.812;2023-08-30T08:29:27;15.90;99.90
52849;DHT22;38714;53.180;5.812;2023-08-30T08:31:55;15.90;99.90
52849;DHT22;38714;53.180;5.812;2023-08-30T08:34:21;15.80;99.90
52849;DHT22;38714;53.180;5.812;2023-08-30T08:36:47;15.80;99.90
52849;DHT22;38714;53.180;5.812;2023-08-30T08:39:12;15.70;99.90
52849;DHT22;38714;53.180;5.812;2023-08-30T08:41:43;15.70;99.90
52849;DHT22;38714;53.180;5.812;2023-08-30T08:44:10;15.70;99.90
52849;DHT22;38714;53.180;5.812;2023-08-30T08:46:37;15.60;99.90
52849;DHT22;38714;53.180;5.812;2023-08-30T08:49:16;15.60;99.90
52849;DHT22;38714;53.180;5.812;2023-08-30T08:51:43;15.50;99.90
52849;DHT22;38714;53.180;5.812;2023-08-30T08:54:10;15.50;99.90
52849;DHT22;38714;53.180;5.812;2023-08-30T08:56:36;15.50;99.90
52849;DHT22;38714;53.180;5.812;2023-08-30T08:59:03;15.40;99.90
52849;DHT22;38714;53.180;5.812;2023-08-30T09:01:29;15.40;99.90
52849;DHT22;38714;53.180;5.812;2023-08-30T09:03:55;15.40;99.90
52849;DHT22;38714;53.180;5.812;2023-08-30T09:06:21;15.40;99.90
52849;DHT22;38714;53.180;5.812;2023-08-30T09:08:49;15.40;99.90
52849;DHT22;38714;53.180;5.812;2023-08-30T09:11:14;15.40;99.90
52849;DHT22;38714;53.180;5.812;2023-08-30T09:13:44;15.40;99.90
52849;DHT22;38714;53.180;5.812;2023-08-30T09:16:14;15.40;99.90
52849;DHT22;38714;53.180;5.812;2023-08-30T09:18:41;15.40;99.90
52849;DHT22;38714;53.180;5.812;2023-08-30T09:21:10;15.40;99.90
52849;DHT22;38714;53.180;5.812;2023-08-30T09:23:37;15.50;99.90
52849;DHT22;38714;53.180;5.812;2023-08-30T09:26:03;15.50;99.90
52849;DHT22;38714;53.180;5.812;2023-08-30T09:28:29;15.50;99.90
52849;DHT22;38714;53.180;5.812;2023-08-30T09:30:58;15.50;99.90
52849;DHT22;38714;53.180;5.812;2023-08-30T09:33:32;15.50;99.90
52849;DHT22;38714;53.180;5.812;2023-08-30T09:35:59;15.50;99.90
52849;DHT22;38714;53.180;5.812;2023-08-30T09:38:25;15.50;99.90
52849;DHT22;38714;53.180;5.812;2023-08-30T09:40:51;15.50;99.90
52849;DHT22;38714;53.180;5.812;2023-08-30T09:43:20;15.50;99.90
52849;DHT22;38714;53.180;5.812;2023-08-30T09:45:50;15.50;99.90
52849;DHT22;38714;53.180;5.812;2023-08-30T09:48:20;15.50;99.90
52849;DHT22;38714;53.180;5.812;2023-08-30T09:50:53;15.50;99.90
52849;DHT22;38714;53.180;5.812;2023-08-30T09:53:21;15.50;99.90
52849;DHT22;38714;53.180;5.812;2023-08-30T09:55:52;15.50;99.90
52849;DHT22;38714;53.180;5.812;2023-08-30T09:58:19;15.50;99.90
52849;DHT22;38714;53.180;5.812;2023-08-30T10:00:47;15.50;99.90
52849;DHT22;38714;53.180;5.812;2023-08-30T10:03:12;15.60;99.90
52849;DHT22;38714;53.180;5.812;2023-08-30T10:05:39;15.60;99.90
52849;DHT22;38714;53.180;5.812;2023-08-30T10:08:07;15.60;99.90
52849;DHT22;38714;53.180;5.812;2023-08-30T10:10:34;15.70;99.90
52849;DHT22;38714;53.180;5.812;2023-08-30T10:13:01;15.60;99.90
52849;DHT22;38714;53.180;5.812;2023-08-30T10:15:33;15.60;99.90
52849;DHT22;38714;53.180;5.812;2023-08-30T10:18:01;15.60;99.90
52849;DHT22;38714;53.180;5.812;2023-08-30T10:20:28;15.60;99.90
52849;DHT22;38714;53.180;5.812;2023-08-30T10:22:55;15.50;99.90
52849;DHT22;38714;53.180;5.812;2023-08-30T10:25:26;15.50;99.90
52849;DHT22;38714;53.180;5.812;2023-08-30T10:27:53;15.50;99.90
52849;DHT22;38714;53.180;5.812;2023-08-30T10:30:21;15.40;99.90
52849;DHT22;38714;53.180;5.812;2023-08-30T10:32:48;15.40;99.90
52849;DHT22;38714;53.180;5.812;2023-08-30T10:35:18;15.40;99.90
52849;DHT22;38714;53.180;5.812;2023-08-30T10:37:55;15.40;99.90
52849;DHT22;38714;53.180;5.812;2023-08-30T10:40:21;15.40;99.90
52849;DHT22;38714;53.180;5.812;2023-08-30T10:42:58;15.40;99.90
52849;DHT22;38714;53.180;5.812;2023-08-30T10:45:24;15.40;99.90
52849;DHT22;38714;53.180;5.812;2023-08-30T10:47:54;15.40;99.90
52849;DHT22;38714;53.180;5.812;2023-08-30T10:50:30;15.50;99.90
52849;DHT22;38714;53.180;5.812;2023-08-30T10:52:56;15.50;99.90
52849;DHT22;38714;53.180;5.812;2023-08-30T10:55:23;15.50;99.90
52849;DHT22;38714;53.180;5.812;2023-08-30T10:57:59;15.50;99.90
52849;DHT22;38714;53.180;5.812;2023-08-30T11:00:27;15.50;99.90
52849;DHT22;38714;53.180;5.812;2023-08-30T11:02:52;15.50;99.90
52849;DHT22;38714;53.180;5.812;2023-08-30T11:05:21;15.50;99.90
52849;DHT22;38714;53.180;5.812;2023-08-30T11:07:47;15.50;99.90
52849;DHT22;38714;53.180;5.812;2023-08-30T11:10:15;15.50;99.90
52849;DHT22;38714;53.180;5.812;2023-08-30T11:12:41;15.50;99.90
52849;DHT22;38714;53.180;5.812;2023-08-30T11:15:09;15.50;99.90
52849;DHT22;38714;53.180;5.812;2023-08-30T11:17:35;15.50;99.90
52849;DHT22;38714;53.180;5.812;2023-08-30T11:20:11;15.50;99.90
52849;DHT22;38714;53.180;5.812;2023-08-30T11:22:43;15.60;99.90
52849;DHT22;38714;53.180;5.812;2023-08-30T11:25:10;15.60;99.90
52849;DHT22;38714;53.180;5.812;2023-08-30T11:27:37;15.60;99.90
52849;DHT22;38714;53.180;5.812;2023-08-30T11:30:03;15.60;99.90
52849;DHT22;38714;53.180;5.812;2023-08-30T11:32:38;15.50;99.90
52849;DHT22;38714;53.180;5.812;2023-08-30T11:35:04;15.50;99.90
52849;DHT22;38714;53.180;5.812;2023-08-30T11:37:31;15.50;99.90
52849;DHT22;38714;53.180;5.812;2023-08-30T11:39:58;15.50;99.90
52849;DHT22;38714;53.180;5.812;2023-08-30T11:42:25;15.50;99.90
52849;DHT22;38714;53.180;5.812;2023-08-30T11:44:51;15.50;99.90
52849;DHT22;38714;53.180;5.812;2023-08-30T11:47:24;15.50;99.90
52849;DHT22;38714;53.180;5.812;2023-08-30T11:49:52;15.50;99.90
52849;DHT22;38714;53.180;5.812;2023-08-30T11:52:19;15.40;99.90
52849;DHT22;38714;53.180;5.812;2023-08-30T11:54:47;15.40;99.90
52849;DHT22;38714;53.180;5.812;2023-08-30T11:57:13;15.40;99.90
52849;DHT22;38714;53.180;5.812;2023-08-30T11:59:39;15.40;99.90
52849;DHT22;38714;53.180;5.812;2023-08-30T12:02:05;15.40;99.90
52849;DHT22;38714;53.180;5.812;2023-08-30T12:04:32;15.40;99.90
52849;DHT22;38714;53.180;5.812;2023-08-30T12:06:57;15.40;99.90
52849;DHT22;38714;53.180;5.812;2023-08-30T12:09:30;15.40;99.90
52849;DHT22;38714;53.180;5.812;2023-08-30T12:12:05;15.30;99.90
52849;DHT22;38714;53.180;5.812;2023-08-30T12:14:35;15.30;99.90
52849;DHT22;38714;53.180;5.812;2023-08-30T12:17:00;15.40;99.90
52849;DHT22;38714;53.180;5.812;2023-08-30T12:19:28;15.40;99.90
52849;DHT22;38714;53.180;5.812;2023-08-30T12:21:53;15.40;99.90
52849;DHT22;38714;53.180;5.812;2023-08-30T12:24:19;15.50;99.90
52849;DHT22;38714;53.180;5.812;2023-08-30T12:26:44;15.40;99.90
52849;DHT22;38714;53.180;5.812;2023-08-30T12:29:10;15.50;99.90
52849;DHT22;38714;53.180;5.812;2023-08-30T12:31:36;15.50;99.90
52849;DHT22;38714;53.180;5.812;2023-08-30T12:34:03;15.60;99.90
52849;DHT22;38714;53.180;5.812;2023-08-30T12:36:29;15.60;99.90
52849;DHT22;38714;53.180;5.812;2023-08-30T12:38:54;15.60;99.90
52849;DHT22;38714;53.180;5.812;2023-08-30T12:41:20;15.60;99.90
52849;DHT22;38714;53.180;5.812;2023-08-30T12:43:48;15.60;99.90
52849;DHT22;38714;53.180;5.812;2023-08-30T12:46:14;15.60;99.90
52849;DHT22;38714;53.180;5.812;2023-08-30T12:48:40;15.60;99.90
52849;DHT22;38714;53.180;5.812;2023-08-30T12:51:06;15.60;99.90
52849;DHT22;38714;53.180;5.812;2023-08-30T12:53:32;15.70;99.90
52849;DHT22;38714;53.180;5.812;2023-08-30T12:55:57;15.70;99.90
52849;DHT22;38714;53.180;5.812;2023-08-30T12:58:23;15.70;99.90
52849;DHT22;38714;53.180;5.812;2023-08-30T13:00:49;15.70;99.90
52849;DHT22;38714;53.180;5.812;2023-08-30T13:03:15;15.70;99.90
52849;DHT22;38714;53.180;5.812;2023-08-30T13:05:41;15.80;99.90
52849;DHT22;38714;53.180;5.812;2023-08-30T13:08:06;15.80;99.90
52849;DHT22;38714;53.180;5.812;2023-08-30T13:10:32;15.90;99.90
52849;DHT22;38714;53.180;5.812;2023-08-30T13:12:58;15.90;99.90
52849;DHT22;38714;53.180;5.812;2023-08-30T13:15:24;15.90;99.90
52849;DHT22;38714;53.180;5.812;2023-08-30T13:17:49;16.00;99.90
52849;DHT22;38714;53.180;5.812;2023-08-30T13:20:16;16.00;99.90
52849;DHT22;38714;53.180;5.812;2023-08-30T13:22:42;16.10;99.90
52849;DHT22;38714;53.180;5.812;2023-08-30T13:25:07;16.10;99.90
52849;DHT22;38714;53.180;5.812;2023-08-30T13:27:34;16.20;99.90
52849;DHT22;38714;53.180;5.812;2023-08-30T13:29:59;16.20;99.90
52849;DHT22;38714;53.180;5.812;2023-08-30T13:32:25;16.20;99.90
52849;DHT22;38714;53.180;5.812;2023-08-30T13:34:51;16.20;99.90
52849;DHT22;38714;53.180;5.812;2023-08-30T13:37:17;16.20;99.90
52849;DHT22;38714;53.180;5.812;2023-08-30T13:39:43;16.30;99.90
52849;DHT22;38714;53.180;5.812;2023-08-30T13:42:08;16.20;99.90
52849;DHT22;38714;53.180;5.812;2023-08-30T13:44:35;16.30;99.90
52849;DHT22;38714;53.180;5.812;2023-08-30T13:47:04;16.30;99.90
52849;DHT22;38714;53.180;5.812;2023-08-30T13:49:30;16.40;99.90
52849;DHT22;38714;53.180;5.812;2023-08-30T13:51:56;16.50;99.90
52849;DHT22;38714;53.180;5.812;2023-08-30T13:54:22;16.50;99.90
52849;DHT22;38714;53.180;5.812;2023-08-30T13:56:48;16.60;99.90
52849;DHT22;38714;53.180;5.812;2023-08-30T13:59:13;16.60;99.90
52849;DHT22;38714;53.180;5.812;2023-08-30T14:01:39;16.70;99.90
52849;DHT22;38714;53.180;5.812;2023-08-30T14:04:05;16.70;99.90
52849;DHT22;38714;53.180;5.812;2023-08-30T14:06:32;16.70;99.90
52849;DHT22;38714;53.180;5.812;2023-08-30T14:08:57;16.70;99.90
52849;DHT22;38714;53.180;5.812;2023-08-30T14:11:23;16.60;99.90
52849;DHT22;38714;53.180;5.812;2023-08-30T14:13:49;16.60;99.90
52849;DHT22;38714;53.180;5.812;2023-08-30T14:16:14;16.60;99.90
52849;DHT22;38714;53.180;5.812;2023-08-30T14:18:40;16.60;99.90
52849;DHT22;38714;53.180;5.812;2023-08-30T14:21:06;16.50;99.90
52849;DHT22;38714;53.180;5.812;2023-08-30T14:23:31;16.50;99.90
52849;DHT22;38714;53.180;5.812;2023-08-30T14:25:58;16.50;99.90
52849;DHT22;38714;53.180;5.812;2023-08-30T14:28:25;16.40;99.90
52849;DHT22;38714;53.180;5.812;2023-08-30T14:30:51;16.40;99.90
52849;DHT22;38714;53.180;5.812;2023-08-30T14:33:16;16.50;99.90
52849;DHT22;38714;53.180;5.812;2023-08-30T14:35:43;16.50;99.90
52849;DHT22;38714;53.180;5.812;2023-08-30T14:38:09;16.50;99.90
52849;DHT22;38714;53.180;5.812;2023-08-30T14:40:35;16.50;99.90
52849;DHT22;38714;53.180;5.812;2023-08-30T14:43:05;16.50;99.90
52849;DHT22;38714;53.180;5.812;2023-08-30T14:45:31;16.50;99.90
52849;DHT22;38714;53.180;5.812;2023-08-30T14:47:57;16.50;99.90
52849;DHT22;38714;53.180;5.812;2023-08-30T14:50:22;16.50;99.90
52849;DHT22;38714;53.180;5.812;2023-08-30T14:52:48;16.40;99.90
52849;DHT22;38714;53.180;5.812;2023-08-30T14:55:15;16.40;99.90
52849;DHT22;38714;53.180;5.812;2023-08-30T14:57:41;16.50;99.90
52849;DHT22;38714;53.180;5.812;2023-08-30T15:00:07;16.40;99.90
52849;DHT22;38714;53.180;5.812;2023-08-30T15:02:33;16.50;99.90
52849;DHT22;38714;53.180;5.812;2023-08-30T15:04:58;16.50;99.90
52849;DHT22;38714;53.180;5.812;2023-08-30T15:07:24;16.50;99.90
52849;DHT22;38714;53.180;5.812;2023-08-30T15:09:52;16.50;99.90
52849;DHT22;38714;53.180;5.812;2023-08-30T15:12:18;16.60;99.90
52849;DHT22;38714;53.180;5.812;2023-08-30T15:14:43;16.60;99.90
52849;DHT22;38714;53.180;5.812;2023-08-30T15:17:09;16.70;99.90
52849;DHT22;38714;53.180;5.812;2023-08-30T15:19:35;16.70;99.90
52849;DHT22;38714;53.180;5.812;2023-08-30T15:22:01;16.70;99.90
52849;DHT22;38714;53.180;5.812;2023-08-30T15:24:27;16.60;99.90
52849;DHT22;38714;53.180;5.812;2023-08-30T15:26:53;16.60;99.90
52849;DHT22;38714;53.180;5.812;2023-08-30T15:29:19;16.60;99.90